Time;durP1;ratioP1;P1;durP2;ratioP2;P2;SDS_P1;SDS_P2;PMS_P1;PMS_P2;Temp;Humidity;BMP_temperature;BMP_pressure;BME280_temperature;BME280_humidity;BME280_pressure;Samples;Min_cycle;Max_cycle;Signal;HPM_P1;HPM_P2
2023/10/23 00:01:40;;;;;;;15.55;2.22;;;;;;;;;;4994732;28;20488;-75
2023/10/23 00:04:07;;;;;;;16.20;2.50;;;;;;;;;;4996172;28;20514;-78
2023/10/23 00:06:34;;;;;;;16.02;2.60;;;;;;;;;;4994546;28;20754;-79
2023/10/23 00:09:02;;;;;;;15.15;2.17;;;;;;;;;;4997816;28;20432;-77
2023/10/23 00:11:29;;;;;;;18.45;2.50;;;;;;;;;;5016155;28;20412;-78
2023/10/23 00:13:55;;;;;;;15.40;2.50;;;;;;;;;;5013825;28;20440;-77
2023/10/23 00:16:23;;;;;;;16.80;2.10;;;;;;;;;;5014057;28;20508;-78
2023/10/23 00:18:51;;;;;;;15.75;2.00;;;;;;;;;;4996499;28;20508;-77
2023/10/23 00:21:18;;;;;;;16.45;2.28;;;;;;;;;;5015361;28;20408;-76
2023/10/23 00:23:45;;;;;;;15.60;2.33;;;;;;;;;;5003402;28;20429;-77
2023/10/23 00:26:11;;;;;;;17.95;2.80;;;;;;;;;;5011302;28;20876;-76
2023/10/23 00:28:43;;;;;;;15.55;2.60;;;;;;;;;;4999441;28;20428;-79
2023/10/23 00:31:10;;;;;;;16.40;2.60;;;;;;;;;;4995918;28;20610;-78
2023/10/23 00:33:38;;;;;;;15.85;2.63;;;;;;;;;;4983434;28;20508;-77
2023/10/23 00:36:05;;;;;;;16.10;2.40;;;;;;;;;;4996020;28;20412;-77
2023/10/23 00:38:31;;;;;;;16.50;2.20;;;;;;;;;;4996096;28;20420;-77
2023/10/23 00:40:58;;;;;;;16.10;2.70;;;;;;;;;;4990474;28;20444;-78
2023/10/23 00:43:25;;;;;;;15.20;2.35;;;;;;;;;;5004733;28;20901;-78
2023/10/23 00:45:53;;;;;;;16.17;2.55;;;;;;;;;;4995372;28;21280;-78
2023/10/23 00:48:21;;;;;;;16.65;2.38;;;;;;;;;;4997137;28;20416;-77
2023/10/23 00:50:50;;;;;;;15.20;2.30;;;;;;;;;;4995385;28;20428;-78
2023/10/23 00:53:17;;;;;;;17.60;2.67;;;;;;;;;;5014078;28;20412;-78
2023/10/23 00:55:45;;;;;;;15.63;2.40;;;;;;;;;;4995752;28;20773;-77
2023/10/23 00:58:11;;;;;;;16.38;2.55;;;;;;;;;;5002437;28;20427;-77
2023/10/23 01:00:38;;;;;;;16.20;2.60;;;;;;;;;;5012932;28;20409;-78
2023/10/23 01:03:05;;;;;;;16.65;2.60;;;;;;;;;;4995111;28;20490;-76
2023/10/23 01:05:33;;;;;;;16.40;2.50;;;;;;;;;;5012071;28;20478;-78
2023/10/23 01:08:01;;;;;;;16.75;2.90;;;;;;;;;;4994219;28;20511;-75
2023/10/23 01:10:27;;;;;;;16.10;2.72;;;;;;;;;;4983865;28;20528;-78
2023/10/23 01:12:54;;;;;;;15.32;2.40;;;;;;;;;;5010951;28;20444;-77
2023/10/23 01:15:21;;;;;;;16.10;2.40;;;;;;;;;;5011936;28;20500;-77
2023/10/23 01:17:48;;;;;;;17.00;2.30;;;;;;;;;;5001716;28;20516;-77
2023/10/23 01:20:16;;;;;;;16.70;2.40;;;;;;;;;;5007740;28;20423;-78
2023/10/23 01:22:43;;;;;;;17.90;2.47;;;;;;;;;;4998971;28;20404;-77
2023/10/23 01:25:13;;;;;;;15.02;2.20;;;;;;;;;;5012522;28;20947;-77
2023/10/23 01:27:40;;;;;;;15.68;2.70;;;;;;;;;;4977079;28;20411;-78
2023/10/23 01:30:10;;;;;;;18.60;2.53;;;;;;;;;;4994801;28;20401;-76
2023/10/23 01:32:37;;;;;;;16.83;2.40;;;;;;;;;;4996733;28;20498;-77
2023/10/23 01:35:05;;;;;;;16.58;2.20;;;;;;;;;;4994389;28;20416;-78
2023/10/23 01:37:31;;;;;;;15.13;2.10;;;;;;;;;;4996444;28;20420;-79
2023/10/23 01:39:58;;;;;;;18.45;2.60;;;;;;;;;;4995119;28;20500;-79
2023/10/23 01:42:28;;;;;;;17.00;2.40;;;;;;;;;;5012472;28;20832;-77
2023/10/23 01:44:58;;;;;;;16.40;3.00;;;;;;;;;;4995026;28;20438;-78
2023/10/23 01:47:25;;;;;;;17.50;3.30;;;;;;;;;;5013403;28;20492;-78
2023/10/23 01:49:52;;;;;;;18.70;3.80;;;;;;;;;;4994350;28;20425;-79
2023/10/23 01:52:19;;;;;;;17.90;3.40;;;;;;;;;;4978722;28;20420;-78
2023/10/23 01:54:45;;;;;;;17.80;3.00;;;;;;;;;;5000417;28;20493;-77
2023/10/23 01:57:12;;;;;;;17.75;3.25;;;;;;;;;;4975818;28;20416;-80
2023/10/23 01:59:40;;;;;;;18.80;3.20;;;;;;;;;;4994976;28;20846;-78
2023/10/23 02:02:07;;;;;;;19.27;3.05;;;;;;;;;;4999470;28;20423;-79
2023/10/23 02:04:34;;;;;;;18.17;3.40;;;;;;;;;;5010904;28;20505;-77
2023/10/23 02:07:01;;;;;;;16.73;2.63;;;;;;;;;;4993555;28;20416;-77
2023/10/23 02:09:28;;;;;;;18.38;3.00;;;;;;;;;;5013227;28;20430;-78
2023/10/23 02:11:55;;;;;;;16.50;2.83;;;;;;;;;;5013601;28;20409;-77
2023/10/23 02:14:21;;;;;;;16.40;2.97;;;;;;;;;;5010733;28;20409;-79
2023/10/23 02:16:49;;;;;;;15.87;2.33;;;;;;;;;;4992712;28;21000;-77
2023/10/23 02:19:16;;;;;;;15.80;2.60;;;;;;;;;;4994029;28;20412;-79
2023/10/23 02:21:49;;;;;;;16.40;2.90;;;;;;;;;;4993768;28;20412;-79
2023/10/23 02:24:16;;;;;;;18.10;2.70;;;;;;;;;;4990835;28;20431;-78
2023/10/23 02:26:43;;;;;;;16.55;2.53;;;;;;;;;;4993373;28;20471;-76
2023/10/23 02:29:09;;;;;;;16.50;2.40;;;;;;;;;;4994800;28;20415;-77
2023/10/23 02:31:36;;;;;;;19.00;2.80;;;;;;;;;;4993862;28;20816;-78
2023/10/23 02:34:04;;;;;;;16.50;2.72;;;;;;;;;;4995684;28;20800;-77
2023/10/23 02:36:31;;;;;;;17.20;2.67;;;;;;;;;;4989421;28;20424;-78
2023/10/23 02:38:59;;;;;;;16.45;2.60;;;;;;;;;;4992609;28;20408;-79
2023/10/23 02:41:28;;;;;;;17.58;3.20;;;;;;;;;;5011059;28;20880;-79
2023/10/23 02:43:54;;;;;;;16.80;3.00;;;;;;;;;;4994153;28;20424;-79
2023/10/23 02:46:21;;;;;;;16.73;2.90;;;;;;;;;;4994235;28;20509;-79
2023/10/23 02:48:47;;;;;;;18.60;3.30;;;;;;;;;;4996711;28;20439;-80
2023/10/23 02:51:15;;;;;;;18.65;3.22;;;;;;;;;;4993128;28;20829;-79
2023/10/23 02:53:42;;;;;;;16.50;3.00;;;;;;;;;;4991847;28;20759;-77
2023/10/23 02:56:12;;;;;;;16.30;2.70;;;;;;;;;;4993849;28;20420;-79
2023/10/23 02:58:40;;;;;;;19.70;3.50;;;;;;;;;;4993899;28;20411;-80
2023/10/23 03:01:13;;;;;;;17.05;2.97;;;;;;;;;;4991538;28;20425;-80
2023/10/23 03:03:40;;;;;;;17.05;3.17;;;;;;;;;;5006124;28;21127;-79
2023/10/23 03:06:07;;;;;;;16.33;3.08;;;;;;;;;;4998214;28;20971;-79
2023/10/23 03:08:35;;;;;;;18.05;3.17;;;;;;;;;;4993278;28;20428;-78
2023/10/23 03:11:01;;;;;;;17.63;3.25;;;;;;;;;;4993192;28;20467;-78
2023/10/23 03:13:28;;;;;;;16.25;2.95;;;;;;;;;;4991002;28;20429;-80
2023/10/23 03:15:55;;;;;;;17.90;2.90;;;;;;;;;;4997732;28;20409;-78
2023/10/23 03:18:23;;;;;;;17.45;3.70;;;;;;;;;;4996846;28;20409;-79
2023/10/23 03:20:50;;;;;;;16.02;2.80;;;;;;;;;;4992811;28;20509;-79
2023/10/23 03:23:17;;;;;;;17.85;3.00;;;;;;;;;;4992941;28;20515;-81
2023/10/23 03:25:45;;;;;;;16.80;3.15;;;;;;;;;;4991452;28;20426;-80
2023/10/23 03:28:11;;;;;;;19.08;3.60;;;;;;;;;;4997984;28;20412;-79
2023/10/23 03:30:38;;;;;;;17.23;2.63;;;;;;;;;;4994796;28;20486;-76
2023/10/23 03:33:05;;;;;;;17.08;3.10;;;;;;;;;;4996253;28;20444;-78
2023/10/23 03:35:32;;;;;;;16.52;3.10;;;;;;;;;;5013206;28;20412;-78
2023/10/23 03:37:59;;;;;;;17.27;3.10;;;;;;;;;;5014241;28;20816;-76
2023/10/23 03:40:25;;;;;;;18.00;3.10;;;;;;;;;;4982664;28;20449;-77
2023/10/23 03:42:53;;;;;;;18.88;3.30;;;;;;;;;;4998434;28;20451;-77
2023/10/23 03:45:20;;;;;;;20.33;4.00;;;;;;;;;;4995526;28;20437;-77
2023/10/23 03:47:47;;;;;;;19.27;3.35;;;;;;;;;;4980714;28;20912;-75
2023/10/23 03:50:13;;;;;;;17.67;3.20;;;;;;;;;;4995388;28;20424;-75
2023/10/23 03:52:40;;;;;;;17.17;3.25;;;;;;;;;;4983022;28;20421;-78
2023/10/23 03:55:07;;;;;;;17.40;3.50;;;;;;;;;;5000754;28;20410;-78
2023/10/23 03:57:33;;;;;;;19.15;3.30;;;;;;;;;;4997930;28;20419;-78
2023/10/23 04:00:01;;;;;;;18.13;3.40;;;;;;;;;;4999894;28;20489;-76
2023/10/23 04:02:37;;;;;;;21.63;4.50;;;;;;;;;;5012989;28;20451;-74
2023/10/23 04:05:04;;;;;;;17.15;3.35;;;;;;;;;;4993620;28;20470;-74
2023/10/23 04:07:31;;;;;;;22.30;3.90;;;;;;;;;;4994772;28;20424;-79
2023/10/23 04:09:58;;;;;;;20.00;4.32;;;;;;;;;;5015247;28;20420;-77
2023/10/23 04:12:24;;;;;;;18.00;3.70;;;;;;;;;;5012275;28;20903;-80
2023/10/23 04:14:51;;;;;;;17.70;3.13;;;;;;;;;;5013024;28;20404;-77
2023/10/23 04:17:19;;;;;;;20.02;3.13;;;;;;;;;;5013506;28;20412;-75
2023/10/23 04:19:46;;;;;;;19.60;3.47;;;;;;;;;;5014430;28;20429;-77
2023/10/23 04:22:16;;;;;;;17.58;3.67;;;;;;;;;;5012649;28;20415;-81
2023/10/23 04:24:42;;;;;;;19.80;3.58;;;;;;;;;;4993757;28;20925;-76
2023/10/23 04:27:09;;;;;;;19.48;3.40;;;;;;;;;;5000403;28;20417;-77
2023/10/23 04:29:36;;;;;;;17.00;3.40;;;;;;;;;;5001600;28;20415;-79
2023/10/23 04:32:03;;;;;;;18.50;3.30;;;;;;;;;;4993749;28;20424;-75
2023/10/23 04:34:31;;;;;;;17.33;3.10;;;;;;;;;;4997318;28;20410;-75
2023/10/23 04:36:57;;;;;;;17.60;3.50;;;;;;;;;;4995734;28;20432;-77
2023/10/23 04:39:24;;;;;;;17.20;3.00;;;;;;;;;;4997531;28;20405;-79
2023/10/23 04:41:54;;;;;;;18.73;3.30;;;;;;;;;;4994128;28;20539;-76
2023/10/23 04:44:20;;;;;;;16.00;2.90;;;;;;;;;;5009404;28;20499;-78
2023/10/23 04:46:47;;;;;;;20.27;3.70;;;;;;;;;;5010047;28;20428;-78
2023/10/23 04:49:14;;;;;;;18.17;2.90;;;;;;;;;;5012439;28;20443;-79
2023/10/23 04:51:42;;;;;;;21.50;3.47;;;;;;;;;;4997235;28;20471;-77
2023/10/23 04:54:09;;;;;;;17.00;3.10;;;;;;;;;;5010628;28;20467;-77
2023/10/23 04:56:35;;;;;;;19.00;3.03;;;;;;;;;;4995267;28;20400;-77
2023/10/23 04:59:02;;;;;;;17.67;3.10;;;;;;;;;;4995480;28;20505;-79
2023/10/23 05:01:29;;;;;;;18.55;2.90;;;;;;;;;;4994895;28;20440;-78
2023/10/23 05:03:56;;;;;;;17.92;3.25;;;;;;;;;;4997293;28;20971;-78
2023/10/23 05:06:25;;;;;;;19.10;3.22;;;;;;;;;;5012322;28;20967;-77
2023/10/23 05:08:53;;;;;;;16.73;3.20;;;;;;;;;;5000783;28;20423;-81
2023/10/23 05:11:19;;;;;;;20.77;3.40;;;;;;;;;;5010831;28;20428;-80
2023/10/23 05:13:46;;;;;;;18.88;2.95;;;;;;;;;;5011482;28;20824;-78
2023/10/23 05:16:12;;;;;;;18.20;2.90;;;;;;;;;;5002507;28;21020;-77
2023/10/23 05:18:39;;;;;;;21.55;3.10;;;;;;;;;;5006118;28;20922;-76
2023/10/23 05:21:07;;;;;;;18.00;3.00;;;;;;;;;;5012643;28;20499;-78
2023/10/23 05:23:33;;;;;;;17.00;2.70;;;;;;;;;;4999913;28;20432;-81
2023/10/23 05:26:01;;;;;;;18.03;2.90;;;;;;;;;;5012128;28;20536;-78
2023/10/23 05:28:28;;;;;;;20.75;3.00;;;;;;;;;;4992341;28;20940;-77
2023/10/23 05:30:54;;;;;;;18.65;3.40;;;;;;;;;;4992202;28;20502;-76
2023/10/23 05:33:21;;;;;;;20.95;3.22;;;;;;;;;;5011963;28;20423;-78
2023/10/23 05:35:48;;;;;;;20.90;3.27;;;;;;;;;;4977357;28;20433;-77
2023/10/23 05:38:15;;;;;;;20.80;4.33;;;;;;;;;;5011810;28;20507;-78
2023/10/23 05:40:42;;;;;;;18.50;3.92;;;;;;;;;;4996349;28;20445;-80
2023/10/23 05:43:16;;;;;;;18.30;3.70;;;;;;;;;;4996032;28;20408;-77
2023/10/23 05:45:45;;;;;;;18.88;3.60;;;;;;;;;;5007806;28;20428;-77
2023/10/23 05:48:11;;;;;;;18.27;3.60;;;;;;;;;;4993448;28;20408;-77
2023/10/23 05:50:38;;;;;;;17.50;3.40;;;;;;;;;;4996831;28;20503;-76
2023/10/23 05:53:05;;;;;;;20.13;3.30;;;;;;;;;;5003269;28;20452;-79
2023/10/23 05:55:33;;;;;;;19.88;3.72;;;;;;;;;;5011221;28;20415;-80
2023/10/23 05:58:00;;;;;;;18.40;3.90;;;;;;;;;;4994622;28;20413;-79
2023/10/23 06:00:28;;;;;;;21.00;3.65;;;;;;;;;;5008725;28;20424;-77
2023/10/23 06:02:55;;;;;;;21.98;4.30;;;;;;;;;;5011279;28;21004;-78
2023/10/23 06:05:21;;;;;;;19.63;4.78;;;;;;;;;;4993659;28;20920;-78
2023/10/23 06:07:48;;;;;;;19.73;4.37;;;;;;;;;;4993238;28;20444;-77
2023/10/23 06:10:15;;;;;;;19.92;4.00;;;;;;;;;;4994402;28;20445;-78
2023/10/23 06:12:41;;;;;;;19.75;4.60;;;;;;;;;;4993002;28;21056;-79
2023/10/23 06:15:10;;;;;;;17.83;3.95;;;;;;;;;;5011718;28;20405;-79
2023/10/23 06:17:38;;;;;;;19.87;3.90;;;;;;;;;;5002069;28;20419;-78
2023/10/23 06:20:05;;;;;;;18.85;4.10;;;;;;;;;;5012647;28;20475;-78
2023/10/23 06:22:31;;;;;;;21.85;4.95;;;;;;;;;;5010919;28;20777;-76
2023/10/23 06:24:58;;;;;;;21.08;4.20;;;;;;;;;;4993435;28;20449;-76
2023/10/23 06:27:25;;;;;;;23.30;4.90;;;;;;;;;;4991513;28;20413;-79
2023/10/23 06:29:51;;;;;;;19.90;3.97;;;;;;;;;;5012619;28;20408;-79
2023/10/23 06:32:19;;;;;;;21.52;4.00;;;;;;;;;;4994045;28;20427;-78
2023/10/23 06:34:49;;;;;;;19.30;4.87;;;;;;;;;;4992564;28;20539;-77
2023/10/23 06:37:16;;;;;;;23.10;4.40;;;;;;;;;;4982962;28;20851;-78
2023/10/23 06:39:43;;;;;;;18.38;3.78;;;;;;;;;;4995222;28;20424;-76
2023/10/23 06:42:10;;;;;;;19.27;4.15;;;;;;;;;;4999606;28;20953;-76
2023/10/23 06:44:37;;;;;;;18.75;3.90;;;;;;;;;;4981451;28;20421;-79
2023/10/23 06:47:04;;;;;;;23.13;4.75;;;;;;;;;;4996591;28;20432;-77
2023/10/23 06:49:30;;;;;;;19.58;4.57;;;;;;;;;;4993475;28;20809;-78
2023/10/23 06:51:59;;;;;;;18.70;4.55;;;;;;;;;;4992418;28;20421;-77
2023/10/23 06:54:26;;;;;;;20.07;4.10;;;;;;;;;;4993232;28;20428;-77
2023/10/23 06:56:53;;;;;;;22.25;4.43;;;;;;;;;;4976380;28;20921;-78
2023/10/23 06:59:20;;;;;;;20.08;5.03;;;;;;;;;;4994884;28;20424;-79
2023/10/23 07:01:47;;;;;;;24.67;4.20;;;;;;;;;;4976310;28;20916;-79
2023/10/23 07:04:14;;;;;;;20.97;4.90;;;;;;;;;;4991849;28;20424;-77
2023/10/23 07:06:41;;;;;;;21.23;5.05;;;;;;;;;;4992280;28;20456;-79
2023/10/23 07:09:09;;;;;;;20.20;4.85;;;;;;;;;;5011471;28;20407;-78
2023/10/23 07:11:36;;;;;;;21.87;5.80;;;;;;;;;;4992114;28;20456;-79
2023/10/23 07:14:03;;;;;;;23.60;5.65;;;;;;;;;;4989602;28;20920;-78
2023/10/23 07:16:30;;;;;;;20.85;5.47;;;;;;;;;;4993497;28;20487;-78
2023/10/23 07:18:56;;;;;;;22.00;5.50;;;;;;;;;;5009417;28;20960;-78
2023/10/23 07:21:25;;;;;;;21.77;5.22;;;;;;;;;;4997720;28;20512;-78
2023/10/23 07:23:52;;;;;;;23.17;5.30;;;;;;;;;;4990813;28;20434;-79
2023/10/23 07:26:20;;;;;;;21.40;5.30;;;;;;;;;;4992116;28;20515;-77
2023/10/23 07:28:47;;;;;;;23.73;6.30;;;;;;;;;;4992454;28;20510;-77
2023/10/23 07:31:14;;;;;;;23.40;6.03;;;;;;;;;;5012031;28;20416;-78
2023/10/23 07:33:40;;;;;;;24.13;5.22;;;;;;;;;;4993292;28;20431;-79
2023/10/23 07:36:10;;;;;;;21.48;5.50;;;;;;;;;;5010056;28;20407;-77
2023/10/23 07:38:37;;;;;;;21.20;5.70;;;;;;;;;;4972220;28;21017;-77
2023/10/23 07:41:04;;;;;;;22.67;6.32;;;;;;;;;;4993931;28;20475;-79
2023/10/23 07:43:32;;;;;;;25.20;6.90;;;;;;;;;;4990515;28;20467;-75
2023/10/23 07:46:03;;;;;;;23.42;7.00;;;;;;;;;;4993577;28;20443;-78
2023/10/23 07:48:42;;;;;;;23.52;5.70;;;;;;;;;;4993167;28;20431;-79
2023/10/23 07:51:09;;;;;;;22.00;5.47;;;;;;;;;;5000742;28;20432;-77
2023/10/23 07:53:36;;;;;;;24.38;6.90;;;;;;;;;;4975211;28;20536;-78
2023/10/23 07:56:04;;;;;;;22.80;6.80;;;;;;;;;;4988065;28;20412;-77
2023/10/23 07:58:31;;;;;;;25.08;7.10;;;;;;;;;;4998561;28;20929;-77
2023/10/23 08:01:04;;;;;;;21.70;6.22;;;;;;;;;;4992182;28;20425;-77
2023/10/23 08:03:33;;;;;;;25.40;7.80;;;;;;;;;;4994512;28;20433;-78
2023/10/23 08:06:00;;;;;;;25.90;8.55;;;;;;;;;;4979809;28;21034;-77
2023/10/23 08:08:27;;;;;;;26.92;9.00;;;;;;;;;;5012244;28;20492;-77
2023/10/23 08:10:53;;;;;;;26.85;8.65;;;;;;;;;;4993113;28;20413;-78
2023/10/23 08:13:20;;;;;;;29.45;9.65;;;;;;;;;;4990902;28;20530;-77
2023/10/23 08:15:47;;;;;;;28.67;9.50;;;;;;;;;;4976293;28;20924;-77
2023/10/23 08:18:18;;;;;;;23.45;7.72;;;;;;;;;;5011773;28;20524;-80
2023/10/23 08:21:07;;;;;;;24.40;7.05;;;;;;;;;;5009866;28;20877;-75
2023/10/23 08:23:34;;;;;;;23.00;6.55;;;;;;;;;;4994896;28;20913;-77
2023/10/23 08:26:00;;;;;;;21.38;6.30;;;;;;;;;;4997891;28;20929;-79
2023/10/23 08:28:27;;;;;;;22.95;6.15;;;;;;;;;;4995771;28;20431;-77
2023/10/23 08:31:07;;;;;;;19.95;5.32;;;;;;;;;;5010055;28;20428;-76
2023/10/23 08:33:52;;;;;;;21.65;6.50;;;;;;;;;;4998174;28;20408;-76
2023/10/23 08:36:18;;;;;;;21.13;5.28;;;;;;;;;;5010933;28;20405;-76
2023/10/23 08:38:45;;;;;;;20.63;5.68;;;;;;;;;;5012586;28;20502;-78
2023/10/23 08:41:12;;;;;;;20.90;5.22;;;;;;;;;;4993966;28;21183;-75
2023/10/23 08:43:39;;;;;;;18.83;4.80;;;;;;;;;;4997004;28;20421;-77
2023/10/23 08:46:08;;;;;;;20.63;6.10;;;;;;;;;;5012617;28;20917;-77
2023/10/23 08:48:36;;;;;;;19.90;5.40;;;;;;;;;;5013499;28;20425;-77
2023/10/23 08:51:07;;;;;;;22.20;6.00;;;;;;;;;;5012726;28;20900;-77
2023/10/23 08:53:37;;;;;;;22.42;6.80;;;;;;;;;;5012459;28;20824;-76
2023/10/23 08:56:06;;;;;;;23.38;6.70;;;;;;;;;;4994663;28;20408;-75
2023/10/23 08:58:35;;;;;;;22.92;7.05;;;;;;;;;;4993524;28;20515;-74
2023/10/23 09:01:03;;;;;;;22.77;7.30;;;;;;;;;;4999706;28;20482;-75
2023/10/23 09:03:31;;;;;;;23.42;7.00;;;;;;;;;;5012340;28;20820;-78
2023/10/23 09:06:19;;;;;;;22.67;6.80;;;;;;;;;;4997231;28;20442;-78
2023/10/23 09:08:46;;;;;;;22.50;6.50;;;;;;;;;;4976833;28;20519;-77
2023/10/23 09:11:12;;;;;;;25.90;7.40;;;;;;;;;;4993874;28;20460;-76
2023/10/23 09:13:40;;;;;;;22.83;7.20;;;;;;;;;;4994026;28;20503;-75
2023/10/23 09:16:07;;;;;;;22.17;7.05;;;;;;;;;;4993765;28;20475;-74
2023/10/23 09:18:43;;;;;;;23.45;7.40;;;;;;;;;;5012357;28;20417;-76
2023/10/23 09:21:11;;;;;;;23.17;7.23;;;;;;;;;;5002552;28;20501;-75
2023/10/23 09:23:48;;;;;;;21.43;7.20;;;;;;;;;;4992998;28;20556;-76
2023/10/23 09:26:15;;;;;;;22.38;7.45;;;;;;;;;;5010762;28;20502;-77
2023/10/23 09:28:41;;;;;;;20.45;5.82;;;;;;;;;;5011565;28;20900;-74
2023/10/23 09:31:08;;;;;;;21.70;6.40;;;;;;;;;;5012546;28;20519;-76
2023/10/23 09:33:38;;;;;;;20.90;5.90;;;;;;;;;;5011655;28;20401;-84
2023/10/23 09:36:05;;;;;;;20.65;6.35;;;;;;;;;;5016720;28;20763;-83
2023/10/23 09:38:32;;;;;;;20.60;6.45;;;;;;;;;;4996479;28;20429;-79
2023/10/23 09:41:01;;;;;;;21.40;5.57;;;;;;;;;;4996929;28;20505;-79
2023/10/23 09:43:27;;;;;;;21.10;5.43;;;;;;;;;;5011626;28;20411;-80
2023/10/23 09:45:55;;;;;;;21.40;5.70;;;;;;;;;;5010079;28;20515;-79
2023/10/23 09:48:22;;;;;;;20.55;5.30;;;;;;;;;;4991173;28;20454;-80
2023/10/23 09:50:49;;;;;;;20.00;4.78;;;;;;;;;;4994536;28;20422;-79
2023/10/23 09:53:16;;;;;;;18.60;4.50;;;;;;;;;;4997554;28;20552;-80
2023/10/23 09:55:44;;;;;;;20.80;4.60;;;;;;;;;;5012189;28;20413;-79
2023/10/23 09:58:16;;;;;;;20.10;5.07;;;;;;;;;;4994489;28;20924;-81
2023/10/23 10:00:44;;;;;;;21.67;4.97;;;;;;;;;;5010957;28;20952;-80
2023/10/23 10:03:12;;;;;;;18.10;4.10;;;;;;;;;;4993386;28;20796;-78
2023/10/23 10:05:44;;;;;;;18.77;4.20;;;;;;;;;;5013430;28;21030;-80
2023/10/23 10:08:13;;;;;;;17.90;4.10;;;;;;;;;;5010936;28;20818;-81
2023/10/23 10:10:39;;;;;;;16.80;3.42;;;;;;;;;;5010293;28;20863;-80
2023/10/23 10:13:06;;;;;;;18.38;3.97;;;;;;;;;;4992091;28;20513;-80
2023/10/23 10:15:35;;;;;;;17.15;3.42;;;;;;;;;;4993696;28;20979;-79
2023/10/23 10:18:02;;;;;;;18.02;3.45;;;;;;;;;;5002572;28;20409;-80
2023/10/23 10:20:28;;;;;;;17.17;3.65;;;;;;;;;;5008954;28;20460;-79
2023/10/23 10:22:59;;;;;;;18.35;3.53;;;;;;;;;;4992773;28;20770;-79
2023/10/23 10:25:26;;;;;;;19.40;3.70;;;;;;;;;;4992704;28;20512;-79
2023/10/23 10:27:57;;;;;;;17.55;3.60;;;;;;;;;;4998293;28;20431;-80
2023/10/23 10:30:38;;;;;;;17.20;3.30;;;;;;;;;;4996408;28;20420;-81
2023/10/23 10:33:07;;;;;;;17.67;3.30;;;;;;;;;;5008070;28;20424;-80
2023/10/23 10:35:57;;;;;;;16.35;2.63;;;;;;;;;;5009251;28;20894;-78
2023/10/23 10:38:24;;;;;;;18.30;3.20;;;;;;;;;;4998147;28;20416;-79
2023/10/23 10:40:59;;;;;;;16.25;2.30;;;;;;;;;;5000908;28;20420;-80
2023/10/23 10:43:31;;;;;;;16.08;2.38;;;;;;;;;;5008708;28;20433;-78
2023/10/23 10:45:59;;;;;;;17.38;2.90;;;;;;;;;;5005534;28;20775;-78
2023/10/23 10:48:39;;;;;;;16.17;2.60;;;;;;;;;;4992554;28;20893;-79
2023/10/23 10:51:06;;;;;;;16.50;2.70;;;;;;;;;;5014937;28;20476;-79
2023/10/23 10:53:32;;;;;;;16.20;3.00;;;;;;;;;;4992881;28;20421;-77
2023/10/23 10:55:59;;;;;;;16.08;2.60;;;;;;;;;;5010758;28;20504;-78
2023/10/23 10:58:26;;;;;;;16.90;2.58;;;;;;;;;;4996375;28;20488;-82
2023/10/23 11:00:52;;;;;;;16.42;2.85;;;;;;;;;;5011213;28;21043;-79
2023/10/23 11:03:20;;;;;;;16.73;2.70;;;;;;;;;;4995101;28;20439;-79
2023/10/23 11:05:47;;;;;;;17.48;2.80;;;;;;;;;;4991777;28;20415;-79
2023/10/23 11:08:14;;;;;;;17.38;2.70;;;;;;;;;;5007724;28;20441;-81
2023/10/23 11:10:41;;;;;;;18.10;2.80;;;;;;;;;;5012993;28;21257;-80
2023/10/23 11:13:12;;;;;;;17.98;2.38;;;;;;;;;;4991085;28;20447;-81
2023/10/23 11:15:39;;;;;;;15.40;2.40;;;;;;;;;;4990633;28;20428;-81
2023/10/23 11:18:05;;;;;;;16.60;2.80;;;;;;;;;;4993826;28;20446;-80
2023/10/23 11:20:34;;;;;;;16.20;2.20;;;;;;;;;;5008527;28;20427;-79
2023/10/23 11:23:01;;;;;;;14.98;1.95;;;;;;;;;;4982675;28;20452;-78
2023/10/23 11:25:28;;;;;;;17.25;2.00;;;;;;;;;;4991926;28;20432;-79
2023/10/23 11:27:57;;;;;;;16.25;2.00;;;;;;;;;;4992134;28;20448;-81
2023/10/23 11:30:24;;;;;;;15.90;1.80;;;;;;;;;;4996332;28;20462;-79
2023/10/23 11:32:51;;;;;;;16.60;2.58;;;;;;;;;;5011330;28;20436;-81
2023/10/23 11:35:18;;;;;;;16.58;2.30;;;;;;;;;;5007868;28;20491;-78
2023/10/23 11:37:47;;;;;;;15.00;1.80;;;;;;;;;;5009721;28;21355;-80
2023/10/23 11:40:19;;;;;;;18.25;2.20;;;;;;;;;;4993847;28;20417;-78
2023/10/23 11:42:47;;;;;;;16.60;2.20;;;;;;;;;;5008593;28;20405;-81
2023/10/23 11:45:14;;;;;;;14.95;1.77;;;;;;;;;;4998205;28;20515;-79
2023/10/23 11:47:40;;;;;;;15.00;1.80;;;;;;;;;;5009990;28;20437;-80
2023/10/23 11:50:09;;;;;;;15.90;1.90;;;;;;;;;;4992504;28;20427;-78
2023/10/23 11:52:36;;;;;;;16.10;2.17;;;;;;;;;;4990957;28;20432;-80
2023/10/23 11:55:06;;;;;;;17.95;1.83;;;;;;;;;;4996055;28;20435;-81
2023/10/23 11:57:33;;;;;;;15.00;1.90;;;;;;;;;;4996387;28;20418;-80
2023/10/23 12:00:01;;;;;;;16.70;2.00;;;;;;;;;;5010167;28;20486;-79
2023/10/23 12:02:37;;;;;;;16.00;1.90;;;;;;;;;;5012818;28;20403;-80
2023/10/23 12:05:04;;;;;;;18.40;2.37;;;;;;;;;;4995150;28;20532;-79
2023/10/23 12:07:31;;;;;;;15.02;1.85;;;;;;;;;;4996142;28;20429;-80
2023/10/23 12:09:57;;;;;;;15.52;1.90;;;;;;;;;;5014589;28;20447;-78
2023/10/23 12:12:25;;;;;;;17.92;2.10;;;;;;;;;;5014337;28;20412;-78
2023/10/23 12:14:52;;;;;;;18.50;1.80;;;;;;;;;;5014888;28;20409;-80
2023/10/23 12:17:21;;;;;;;15.90;2.10;;;;;;;;;;4995961;28;20933;-78
2023/10/23 12:19:47;;;;;;;16.75;1.90;;;;;;;;;;4994257;28;20421;-79
2023/10/23 12:22:14;;;;;;;16.60;2.05;;;;;;;;;;5001774;28;20419;-77
2023/10/23 12:24:40;;;;;;;14.82;1.60;;;;;;;;;;4995221;28;20435;-79
2023/10/23 12:27:07;;;;;;;19.75;1.70;;;;;;;;;;4995139;28;20411;-80
2023/10/23 12:29:35;;;;;;;15.90;1.60;;;;;;;;;;5011083;28;20484;-81
2023/10/23 12:32:03;;;;;;;14.60;1.50;;;;;;;;;;5014710;28;20409;-81
2023/10/23 12:34:31;;;;;;;15.30;1.60;;;;;;;;;;4994749;28;20915;-80
2023/10/23 12:36:58;;;;;;;17.05;2.20;;;;;;;;;;5001157;28;20443;-81
2023/10/23 12:39:26;;;;;;;14.60;1.52;;;;;;;;;;4994177;28;21089;-79
2023/10/23 12:41:52;;;;;;;18.60;1.90;;;;;;;;;;5013435;28;20413;-80
2023/10/23 12:44:19;;;;;;;16.33;1.90;;;;;;;;;;4993829;28;20781;-80
2023/10/23 12:46:47;;;;;;;16.30;1.70;;;;;;;;;;5011883;28;20408;-81
2023/10/23 12:49:17;;;;;;;17.10;1.90;;;;;;;;;;4995100;28;20444;-80
2023/10/23 12:51:44;;;;;;;15.45;1.80;;;;;;;;;;5001103;28;20430;-80
2023/10/23 12:54:11;;;;;;;15.80;1.90;;;;;;;;;;4998714;28;20498;-81
2023/10/23 12:56:37;;;;;;;18.50;1.80;;;;;;;;;;5008437;28;20409;-82
2023/10/23 12:59:04;;;;;;;15.70;1.50;;;;;;;;;;4996189;28;20406;-81
2023/10/23 13:01:31;;;;;;;18.20;1.80;;;;;;;;;;5014477;28;20422;-80
2023/10/23 13:03:59;;;;;;;14.63;1.60;;;;;;;;;;4998616;28;20412;-79
2023/10/23 13:06:26;;;;;;;15.02;1.73;;;;;;;;;;4994406;28;20421;-80
2023/10/23 13:08:53;;;;;;;17.30;1.97;;;;;;;;;;5012727;28;20586;-80
2023/10/23 13:11:19;;;;;;;15.80;1.67;;;;;;;;;;4994071;28;20408;-81
2023/10/23 13:13:46;;;;;;;16.58;1.63;;;;;;;;;;4996795;28;20421;-80
2023/10/23 13:16:12;;;;;;;16.70;1.90;;;;;;;;;;4993711;28;20417;-81
2023/10/23 13:18:41;;;;;;;15.45;1.90;;;;;;;;;;5001620;28;20416;-80
2023/10/23 13:21:20;;;;;;;18.17;1.70;;;;;;;;;;4993914;28;20415;-81
2023/10/23 13:23:59;;;;;;;15.38;1.40;;;;;;;;;;5013598;28;20411;-80
2023/10/23 13:26:25;;;;;;;14.77;1.60;;;;;;;;;;5012182;28;20413;-80
2023/10/23 13:28:52;;;;;;;14.90;1.80;;;;;;;;;;4994728;28;20505;-79
2023/10/23 13:31:19;;;;;;;16.50;1.70;;;;;;;;;;4994369;28;20455;-81
2023/10/23 13:33:46;;;;;;;17.05;2.08;;;;;;;;;;5011043;28;20413;-80
2023/10/23 13:36:12;;;;;;;16.33;2.05;;;;;;;;;;5009182;28;20893;-79
2023/10/23 13:38:40;;;;;;;15.18;1.75;;;;;;;;;;5011663;28;20431;-78
2023/10/23 13:41:07;;;;;;;15.30;1.70;;;;;;;;;;5013661;28;20416;-79
2023/10/23 13:43:34;;;;;;;16.00;1.90;;;;;;;;;;5008851;28;20933;-79
2023/10/23 13:46:01;;;;;;;15.48;1.60;;;;;;;;;;5013179;28;20494;-79
2023/10/23 13:48:27;;;;;;;17.10;1.70;;;;;;;;;;4993556;28;20425;-79
2023/10/23 13:50:54;;;;;;;15.18;1.52;;;;;;;;;;4996157;28;20758;-79
2023/10/23 13:53:21;;;;;;;18.23;1.90;;;;;;;;;;4994368;28;20529;-80
2023/10/23 13:55:49;;;;;;;15.10;1.65;;;;;;;;;;4992552;28;20421;-80
2023/10/23 13:58:16;;;;;;;15.10;1.70;;;;;;;;;;5012740;28;20889;-79
2023/10/23 14:00:44;;;;;;;15.82;2.10;;;;;;;;;;4993746;28;20415;-79
2023/10/23 14:03:11;;;;;;;15.25;1.50;;;;;;;;;;4999261;28;20451;-80
2023/10/23 14:05:37;;;;;;;16.50;2.00;;;;;;;;;;5011400;28;21022;-79
2023/10/23 14:08:04;;;;;;;16.90;1.60;;;;;;;;;;4993354;28;20440;-79
2023/10/23 14:10:31;;;;;;;16.40;2.20;;;;;;;;;;5010546;28;21127;-79
2023/10/23 14:12:59;;;;;;;17.10;1.90;;;;;;;;;;4993971;28;20483;-79
2023/10/23 14:15:26;;;;;;;17.08;1.88;;;;;;;;;;5010217;28;20408;-79
2023/10/23 14:17:53;;;;;;;19.73;1.63;;;;;;;;;;4994845;28;20802;-79
2023/10/23 14:20:20;;;;;;;15.07;1.50;;;;;;;;;;4991444;28;20477;-78
2023/10/23 14:22:46;;;;;;;17.35;1.60;;;;;;;;;;4997727;28;20401;-80
2023/10/23 14:25:13;;;;;;;18.42;2.10;;;;;;;;;;4993289;28;20412;-80
2023/10/23 14:27:40;;;;;;;16.35;1.65;;;;;;;;;;4992707;28;20419;-78
2023/10/23 14:30:09;;;;;;;17.30;1.70;;;;;;;;;;4995264;28;20424;-79
2023/10/23 14:32:36;;;;;;;15.40;2.00;;;;;;;;;;5012291;28;20528;-78
2023/10/23 14:35:03;;;;;;;17.55;1.80;;;;;;;;;;4992884;28;20425;-79